Time;durP1;ratioP1;P1;durP2;ratioP2;P2;SDS_P1;SDS_P2;PMS_P1;PMS_P2;Temp;Humidity;BMP_temperature;BMP_pressure;BME280_temperature;BME280_humidity;BME280_pressure;Samples;Min_cycle;Max_cycle;Signal;HPM_P1;HPM_P2
2022/06/19 00:00:09;;;;;;;;;;;;;;;21.23;29.61;98211.16;4957965;29;1025;-78
2022/06/19 00:02:37;;;;;;;;;;;;;;;21.18;29.59;98208.03;4957932;29;1014;-79
2022/06/19 00:05:03;;;;;;;;;;;;;;;21.21;29.82;98212.84;4949465;29;938;-78
2022/06/19 00:07:28;;;;;;;;;;;;;;;21.22;29.73;98206.72;4948562;28;1046;-78
2022/06/19 00:09:54;;;;;;;;;;;;;;;21.22;29.76;98212.38;4957322;28;1001;-79
2022/06/19 00:12:19;;;;;;;;;;;;;;;21.57;29.41;98210.03;4957622;28;1017;-78
2022/06/19 00:14:45;;;;;;;;;;;;;;;21.92;28.95;98210.44;4957447;28;1910;-79
2022/06/19 00:17:11;;;;;;;;;;;;;;;21.53;29.44;98217.81;4957711;28;988;-80
2022/06/19 00:19:36;;;;;;;;;;;;;;;21.29;29.63;98215.06;4957382;28;1126;-78
2022/06/19 00:22:02;;;;;;;;;;;;;;;21.35;30.02;98208.91;4957502;28;943;-79
2022/06/19 00:24:29;;;;;;;;;;;;;;;21.21;29.88;98210.81;4957421;28;992;-78
2022/06/19 00:26:54;;;;;;;;;;;;;;;21.18;30.09;98211.66;4957197;28;983;-78
2022/06/19 00:29:20;;;;;;;;;;;;;;;21.22;30.08;98209.56;4957405;28;944;-79
2022/06/19 00:31:45;;;;;;;;;;;;;;;21.11;30.38;98203.34;4957086;28;965;-78
2022/06/19 00:34:11;;;;;;;;;;;;;;;21.04;30.36;98203.50;4957633;28;1911;-78
2022/06/19 00:36:36;;;;;;;;;;;;;;;21.10;30.27;98213.06;4969412;28;1181;-78
2022/06/19 00:39:02;;;;;;;;;;;;;;;21.58;29.87;98209.59;5011634;28;978;-78
2022/06/19 00:41:31;;;;;;;;;;;;;;;21.75;29.32;98210.41;5017470;28;935;-79
2022/06/19 00:43:56;;;;;;;;;;;;;;;21.65;29.46;98208.63;4975840;28;993;-79
2022/06/19 00:46:37;;;;;;;;;;;;;;;21.48;29.59;98209.84;4975957;28;990;-79
2022/06/19 00:49:03;;;;;;;;;;;;;;;21.30;29.85;98213.06;4976075;28;1074;-78
2022/06/19 00:51:28;;;;;;;;;;;;;;;21.24;29.86;98212.75;4937177;29;2608;-79
2022/06/19 00:53:53;;;;;;;;;;;;;;;21.28;30.05;98204.19;4918296;29;1976;-78
2022/06/19 00:56:19;;;;;;;;;;;;;;;21.20;29.97;98212.03;4881021;29;1000;-79
2022/06/19 00:58:45;;;;;;;;;;;;;;;21.04;30.37;98209.16;4865254;29;1112;-78
2022/06/19 01:01:15;;;;;;;;;;;;;;;21.44;30.01;98203.44;4846473;29;2642;-78
2022/06/19 01:03:43;;;;;;;;;;;;;;;21.64;29.50;98209.84;4862372;29;1003;-79
2022/06/19 01:06:09;;;;;;;;;;;;;;;21.94;28.96;98203.06;4843594;29;1217;-79
2022/06/19 01:08:34;;;;;;;;;;;;;;;21.50;29.53;98207.34;4842765;29;972;-80
2022/06/19 01:11:00;;;;;;;;;;;;;;;21.25;29.94;98203.03;4843776;29;1055;-79
2022/06/19 01:13:26;;;;;;;;;;;;;;;21.22;30.15;98203.09;4843604;29;1048;-79
2022/06/19 01:15:51;;;;;;;;;;;;;;;21.10;30.27;98193.25;4839214;29;1935;-79
2022/06/19 01:18:16;;;;;;;;;;;;;;;21.15;30.27;98192.75;4806692;29;1112;-78
2022/06/19 01:20:42;;;;;;;;;;;;;;;21.19;30.06;98199.13;4807176;29;1083;-79
2022/06/19 01:23:10;;;;;;;;;;;;;;;21.08;30.17;98192.88;4806916;29;1017;-78
2022/06/19 01:25:36;;;;;;;;;;;;;;;21.39;30.24;98201.94;4806949;29;972;-78
2022/06/19 01:30:49;;;;;;;;;;;;;;;21.59;29.48;98199.06;4842978;29;1033;-79
2022/06/19 01:33:16;;;;;;;;;;;;;;;21.37;29.89;98197.97;4853750;29;962;-79
2022/06/19 01:35:42;;;;;;;;;;;;;;;21.07;30.23;98196.94;4880194;29;1915;-79
2022/06/19 01:38:08;;;;;;;;;;;;;;;21.08;30.35;98205.00;4908277;29;1040;-78
2022/06/19 01:40:34;;;;;;;;;;;;;;;21.20;30.00;98195.06;4936951;29;1018;-79
2022/06/19 01:42:59;;;;;;;;;;;;;;;21.18;30.04;98197.50;4920914;29;1074;-78
2022/06/19 01:45:25;;;;;;;;;;;;;;;21.21;30.18;98195.84;4936684;29;1028;-79
2022/06/19 01:47:50;;;;;;;;;;;;;;;21.55;29.89;98198.34;4919942;29;1089;-78
2022/06/19 01:50:16;;;;;;;;;;;;;;;21.96;28.94;98206.25;4968359;28;984;-79
2022/06/19 01:52:42;;;;;;;;;;;;;;;21.60;29.28;98206.31;4898840;29;1023;-79
2022/06/19 01:55:09;;;;;;;;;;;;;;;21.40;29.79;98214.06;4934738;29;1918;-78
2022/06/19 01:57:35;;;;;;;;;;;;;;;21.37;29.68;98206.44;4936280;29;1114;-78
2022/06/19 02:00:02;;;;;;;;;;;;;;;21.26;29.86;98204.63;4936366;29;1007;-78
2022/06/19 02:02:37;;;;;;;;;;;;;;;21.11;30.40;98209.00;4954931;29;1147;-79
2022/06/19 02:05:03;;;;;;;;;;;;;;;21.10;30.18;98203.78;4955830;29;1090;-78
2022/06/19 02:07:28;;;;;;;;;;;;;;;21.03;30.66;98204.72;4955829;29;980;-78
2022/06/19 02:09:54;;;;;;;;;;;;;;;21.23;30.28;98204.69;4898419;29;1008;-78
2022/06/19 02:12:20;;;;;;;;;;;;;;;21.76;29.47;98206.34;4898233;29;1013;-78
2022/06/19 02:14:46;;;;;;;;;;;;;;;21.94;29.22;98202.28;4898184;29;1907;-79
2022/06/19 02:17:29;;;;;;;;;;;;;;;21.64;29.37;98206.22;4860986;29;975;-79
2022/06/19 02:19:54;;;;;;;;;;;;;;;21.27;30.09;98205.41;4863485;29;978;-78
2022/06/19 02:22:20;;;;;;;;;;;;;;;21.10;30.42;98213.06;4828181;29;1001;-78
2022/06/19 02:24:46;;;;;;;;;;;;;;;21.16;29.93;98211.31;4828165;29;1157;-78
2022/06/19 02:27:12;;;;;;;;;;;;;;;21.14;30.37;98202.47;4828143;29;1242;-78
2022/06/19 02:29:37;;;;;;;;;;;;;;;21.30;29.78;98207.41;4817787;29;991;-79
2022/06/19 02:32:03;;;;;;;;;;;;;;;21.61;29.72;98215.63;4797246;29;1065;-79
2022/06/19 02:34:37;;;;;;;;;;;;;;;21.87;29.24;98208.13;4820760;29;1895;-79
2022/06/19 02:37:06;;;;;;;;;;;;;;;21.66;29.17;98215.91;4864537;29;893;-78
2022/06/19 02:39:55;;;;;;;;;;;;;;;21.54;29.35;98213.72;4846323;29;1033;-78
2022/06/19 02:42:20;;;;;;;;;;;;;;;21.31;29.97;98223.16;4809331;29;1273;-79
2022/06/19 02:44:50;;;;;;;;;;;;;;;21.24;29.96;98221.25;4809688;29;1015;-79
2022/06/19 02:47:15;;;;;;;;;;;;;;;21.03;30.42;98216.03;4773601;30;1034;-78
2022/06/19 02:49:41;;;;;;;;;;;;;;;21.17;30.11;98224.22;4782124;30;1227;-79
2022/06/19 02:52:07;;;;;;;;;;;;;;;21.68;29.49;98224.75;4791508;29;1076;-78
2022/06/19 02:54:32;;;;;;;;;;;;;;;21.79;29.04;98230.16;4791862;29;1998;-79
2022/06/19 02:56:58;;;;;;;;;;;;;;;21.57;29.14;98235.50;4773202;30;998;-79
2022/06/19 02:59:23;;;;;;;;;;;;;;;21.40;29.52;98233.88;4773291;30;1011;-79
2022/06/19 03:01:49;;;;;;;;;;;;;;;21.25;29.81;98231.34;4791343;30;1364;-78
2022/06/19 03:04:16;;;;;;;;;;;;;;;21.19;29.63;98233.09;4791506;30;981;-78
2022/06/19 03:06:42;;;;;;;;;;;;;;;21.18;29.82;98237.13;4790898;30;1082;-79
2022/06/19 03:09:07;;;;;;;;;;;;;;;21.21;29.74;98247.59;4773581;30;1129;-79
2022/06/19 03:11:32;;;;;;;;;;;;;;;21.25;29.76;98242.66;4757033;30;1029;-78
2022/06/19 03:13:58;;;;;;;;;;;;;;;21.16;29.93;98245.28;4768998;30;1982;-78
2022/06/19 03:16:23;;;;;;;;;;;;;;;21.10;29.88;98241.34;4773092;30;1064;-79
2022/06/19 03:18:50;;;;;;;;;;;;;;;21.38;29.87;98233.50;4791285;29;1014;-79
2022/06/19 03:21:15;;;;;;;;;;;;;;;21.67;29.24;98248.63;4810687;29;1079;-78
2022/06/19 03:23:41;;;;;;;;;;;;;;;21.81;28.88;98234.16;4854189;29;1110;-79
2022/06/19 03:26:06;;;;;;;;;;;;;;;21.52;29.30;98238.88;4863849;29;1112;-79
2022/06/19 03:28:32;;;;;;;;;;;;;;;21.35;29.50;98240.03;4877881;29;978;-78
2022/06/19 03:30:57;;;;;;;;;;;;;;;21.32;29.62;98231.19;4881575;29;991;-79
2022/06/19 03:33:23;;;;;;;;;;;;;;;21.29;29.75;98232.03;4912563;29;1578;-78
2022/06/19 03:35:48;;;;;;;;;;;;;;;21.36;29.75;98233.16;4946112;29;2161;-79
2022/06/19 03:38:14;;;;;;;;;;;;;;;21.59;29.55;98235.88;4971661;28;1604;-78
2022/06/19 03:40:39;;;;;;;;;;;;;;;21.89;29.20;98233.97;4977481;28;937;-78
2022/06/19 03:43:05;;;;;;;;;;;;;;;21.60;29.38;98234.63;4977540;28;953;-79
2022/06/19 03:45:30;;;;;;;;;;;;;;;21.47;29.44;98236.56;4977990;28;950;-79
2022/06/19 03:47:56;;;;;;;;;;;;;;;21.24;30.15;98238.22;4977007;28;1061;-78
2022/06/19 03:50:21;;;;;;;;;;;;;;;21.36;29.82;98230.34;4981201;28;1723;-79
2022/06/19 03:52:47;;;;;;;;;;;;;;;21.31;29.72;98228.81;4996273;28;1067;-79
2022/06/19 03:55:13;;;;;;;;;;;;;;;21.22;30.34;98234.22;4996479;28;1910;-78
2022/06/19 03:57:38;;;;;;;;;;;;;;;21.18;30.09;98234.31;4961096;28;977;-80
2022/06/19 04:00:04;;;;;;;;;;;;;;;21.12;30.50;98240.91;4977100;28;959;-78
2022/06/19 04:02:37;;;;;;;;;;;;;;;21.29;30.17;98231.25;4977015;28;992;-79
2022/06/19 04:05:02;;;;;;;;;;;;;;;21.71;29.60;98235.19;4984913;28;1491;-78
2022/06/19 04:07:28;;;;;;;;;;;;;;;21.79;29.40;98233.78;4996221;28;959;-79
2022/06/19 04:09:58;;;;;;;;;;;;;;;21.70;29.55;98241.28;4996428;28;1015;-78
2022/06/19 04:12:23;;;;;;;;;;;;;;;21.48;29.78;98235.31;4957156;29;990;-79
2022/06/19 04:14:50;;;;;;;;;;;;;;;21.32;29.97;98236.06;4956244;29;1977;-79
2022/06/19 04:17:16;;;;;;;;;;;;;;;21.35;30.32;98234.38;4957483;29;919;-79
2022/06/19 04:19:41;;;;;;;;;;;;;;;21.28;30.39;98230.44;4957220;29;1020;-78
2022/06/19 04:22:07;;;;;;;;;;;;;;;21.01;30.58;98239.09;4925521;29;1081;-79
2022/06/19 04:24:32;;;;;;;;;;;;;;;21.19;30.39;98246.41;4954657;29;1995;-78
2022/06/19 04:26:58;;;;;;;;;;;;;;;21.25;30.26;98253.97;4956539;29;1467;-79
2022/06/19 04:29:23;;;;;;;;;;;;;;;21.27;30.13;98251.50;4973121;28;936;-79
2022/06/19 04:31:49;;;;;;;;;;;;;;;21.12;30.32;98238.88;4957018;29;1022;-78
2022/06/19 04:34:14;;;;;;;;;;;;;;;21.39;30.51;98246.44;4946952;29;1903;-78
2022/06/19 04:36:39;;;;;;;;;;;;;;;21.96;29.38;98240.25;4955783;29;1150;-77
2022/06/19 04:39:05;;;;;;;;;;;;;;;21.92;29.42;98245.22;4956964;29;1041;-79
2022/06/19 04:41:31;;;;;;;;;;;;;;;21.52;29.77;98253.81;4957046;28;959;-79
2022/06/19 04:43:59;;;;;;;;;;;;;;;21.24;30.24;98252.38;4991641;28;1660;-78
2022/06/19 04:46:24;;;;;;;;;;;;;;;21.17;30.22;98263.84;5015452;28;943;-78
2022/06/19 04:48:50;;;;;;;;;;;;;;;21.38;30.17;98247.66;5015355;28;1073;-79
2022/06/19 04:51:15;;;;;;;;;;;;;;;21.38;30.00;98256.16;5015395;28;1074;-79
2022/06/19 04:53:41;;;;;;;;;;;;;;;21.38;30.11;98259.00;5014284;28;1659;-79
2022/06/19 04:56:07;;;;;;;;;;;;;;;21.28;30.40;98258.75;5012319;28;1524;-79
2022/06/19 04:58:32;;;;;;;;;;;;;;;21.17;30.45;98263.84;5014603;28;1758;-79
2022/06/19 05:00:57;;;;;;;;;;;;;;;21.44;30.61;98260.06;4935609;29;1738;-78
2022/06/19 05:03:23;;;;;;;;;;;;;;;21.69;30.17;98271.63;4918356;29;1133;-78
2022/06/19 05:05:49;;;;;;;;;;;;;;;21.91;29.90;98271.13;4918157;29;1017;-79
2022/06/19 05:08:14;;;;;;;;;;;;;;;21.61;30.12;98270.22;4918615;29;1012;-79
2022/06/19 05:10:41;;;;;;;;;;;;;;;21.37;30.54;98271.56;4918787;29;1074;-79
2022/06/19 05:13:09;;;;;;;;;;;;;;;21.32;30.78;98265.16;4937343;29;1572;-79
2022/06/19 05:15:35;;;;;;;;;;;;;;;21.18;30.77;98273.13;4921414;29;1972;-79
2022/06/19 05:18:01;;;;;;;;;;;;;;;21.25;30.65;98278.66;4937032;29;1042;-79
2022/06/19 05:20:27;;;;;;;;;;;;;;;21.29;30.73;98282.19;4937038;29;1030;-79
2022/06/19 05:22:52;;;;;;;;;;;;;;;21.30;30.99;98281.78;4937227;29;1093;-79
2022/06/19 05:25:18;;;;;;;;;;;;;;;21.43;30.63;98272.63;4936896;29;961;-78
2022/06/19 05:27:43;;;;;;;;;;;;;;;21.22;30.98;98271.81;4936988;29;1445;-78
2022/06/19 05:30:10;;;;;;;;;;;;;;;21.19;31.14;98278.38;4951459;29;2195;-78
2022/06/19 05:32:35;;;;;;;;;;;;;;;21.20;31.18;98271.47;4974238;28;1814;-78
2022/06/19 05:35:01;;;;;;;;;;;;;;;21.13;31.30;98274.41;4989905;28;1910;-79
2022/06/19 05:37:26;;;;;;;;;;;;;;;21.14;31.10;98281.69;4982329;28;1706;-79
2022/06/19 05:39:52;;;;;;;;;;;;;;;21.55;31.13;98277.63;4997305;28;931;-79
2022/06/19 05:42:17;;;;;;;;;;;;;;;22.05;30.13;98276.47;5030640;28;1664;-79
2022/06/19 05:44:43;;;;;;;;;;;;;;;21.75;30.33;98281.19;5035647;28;949;-79
2022/06/19 05:47:08;;;;;;;;;;;;;;;21.57;30.81;98275.94;5016768;28;919;-78
2022/06/19 05:49:34;;;;;;;;;;;;;;;21.34;30.84;98287.38;5016776;28;909;-79
2022/06/19 05:52:03;;;;;;;;;;;;;;;21.41;30.77;98292.88;5016521;28;951;-79
2022/06/19 05:54:29;;;;;;;;;;;;;;;21.33;30.78;98289.41;4981316;28;1906;-78
2022/06/19 05:56:54;;;;;;;;;;;;;;;21.42;30.51;98286.00;5016526;28;1004;-78
2022/06/19 05:59:20;;;;;;;;;;;;;;;21.20;31.01;98291.28;5016369;28;958;-78
2022/06/19 06:01:45;;;;;;;;;;;;;;;21.22;30.84;98297.28;5016914;28;1064;-78
2022/06/19 06:04:11;;;;;;;;;;;;;;;21.28;30.62;98292.72;5016398;28;942;-79
2022/06/19 06:06:36;;;;;;;;;;;;;;;21.30;30.72;98281.00;5016337;28;877;-78
2022/06/19 06:09:01;;;;;;;;;;;;;;;21.27;30.90;98291.13;5016201;28;1049;-79
2022/06/19 06:11:27;;;;;;;;;;;;;;;21.26;30.80;98294.38;5016232;28;901;-79
2022/06/19 06:13:52;;;;;;;;;;;;;;;21.28;30.84;98289.09;5014048;28;1903;-78
2022/06/19 06:16:19;;;;;;;;;;;;;;;21.20;31.14;98296.94;5015160;28;980;-79
2022/06/19 06:18:44;;;;;;;;;;;;;;;21.08;31.25;98291.91;4975316;28;2085;-79
2022/06/19 06:21:11;;;;;;;;;;;;;;;21.02;31.56;98285.97;4975167;28;1038;-79
2022/06/19 06:23:36;;;;;;;;;;;;;;;21.22;31.10;98288.78;4936556;29;882;-79
2022/06/19 06:26:06;;;;;;;;;;;;;;;21.11;31.51;98293.88;4936415;29;1011;-79
2022/06/19 06:28:31;;;;;;;;;;;;;;;21.24;31.17;98283.53;4945289;29;1915;-78
2022/06/19 06:30:57;;;;;;;;;;;;;;;21.13;31.07;98280.09;4955995;29;980;-78
2022/06/19 06:33:22;;;;;;;;;;;;;;;21.18;31.06;98287.28;4955360;29;1084;-78
2022/06/19 06:35:48;;;;;;;;;;;;;;;21.22;31.03;98291.63;4955457;29;1910;-79
2022/06/19 06:38:13;;;;;;;;;;;;;;;21.17;31.09;98289.31;4954770;29;1688;-78
2022/06/19 06:40:39;;;;;;;;;;;;;;;21.09;31.21;98290.69;4953735;29;1952;-79
2022/06/19 06:43:04;;;;;;;;;;;;;;;21.08;31.35;98295.53;4916958;29;986;-78
2022/06/19 06:45:30;;;;;;;;;;;;;;;21.25;30.98;98290.75;4916881;29;1027;-79
2022/06/19 06:47:55;;;;;;;;;;;;;;;21.28;31.18;98291.91;4916568;29;1705;-79
2022/06/19 06:50:21;;;;;;;;;;;;;;;21.04;31.46;98291.19;4931567;29;929;-79
2022/06/19 06:52:46;;;;;;;;;;;;;;;21.18;31.65;98299.38;4918928;29;1921;-79
2022/06/19 06:55:12;;;;;;;;;;;;;;;21.49;32.22;98287.84;4975462;28;1984;-79
2022/06/19 06:57:37;;;;;;;;;;;;;;;21.74;31.76;98290.94;4993976;28;1118;-78
2022/06/19 07:00:03;;;;;;;;;;;;;;;21.72;31.98;98293.44;4976517;28;1778;-78
2022/06/19 07:02:29;;;;;;;;;;;;;;;21.54;32.01;98299.47;4974721;28;1055;-78
2022/06/19 07:04:55;;;;;;;;;;;;;;;21.53;31.61;98294.25;4974879;28;975;-79
2022/06/19 07:07:20;;;;;;;;;;;;;;;21.31;32.32;98296.75;4989719;28;1713;-78
2022/06/19 07:09:46;;;;;;;;;;;;;;;21.38;32.09;98292.97;4983642;28;1672;-78
2022/06/19 07:12:11;;;;;;;;;;;;;;;21.25;32.22;98299.25;4979329;28;1688;-78
2022/06/19 07:14:37;;;;;;;;;;;;;;;21.26;31.82;98289.53;4997365;28;1894;-77
2022/06/19 07:17:02;;;;;;;;;;;;;;;21.36;31.69;98298.28;4997396;28;984;-78
2022/06/19 07:19:28;;;;;;;;;;;;;;;21.33;31.64;98302.75;4963183;28;1359;-78
2022/06/19 07:21:53;;;;;;;;;;;;;;;21.21;31.77;98298.53;4977546;28;991;-78
2022/06/19 07:24:19;;;;;;;;;;;;;;;21.15;32.03;98300.28;4977535;28;1595;-78
2022/06/19 07:26:45;;;;;;;;;;;;;;;21.12;31.72;98306.78;5008524;28;1048;-78
2022/06/19 07:29:11;;;;;;;;;;;;;;;21.29;31.37;98304.81;5019265;28;925;-77
2022/06/19 07:31:36;;;;;;;;;;;;;;;21.37;31.31;98300.66;5018669;28;889;-78
2022/06/19 07:34:02;;;;;;;;;;;;;;;21.26;31.68;98300.84;5016700;28;1913;-78
2022/06/19 07:36:27;;;;;;;;;;;;;;;21.09;32.06;98307.69;5024689;28;1269;-78
2022/06/19 07:38:53;;;;;;;;;;;;;;;21.19;31.41;98298.16;5038437;28;1236;-78
2022/06/19 07:41:18;;;;;;;;;;;;;;;21.33;31.25;98306.38;5028980;28;2310;-78
2022/06/19 07:43:45;;;;;;;;;;;;;;;21.18;31.51;98305.03;5035491;28;1511;-78
2022/06/19 07:46:11;;;;;;;;;;;;;;;21.45;31.90;98301.28;5022958;28;1799;-78
2022/06/19 07:51:21;;;;;;;;;;;;;;;21.78;31.69;98297.34;5038133;28;963;-78
2022/06/19 07:53:46;;;;;;;;;;;;;;;21.60;31.71;98296.91;5038801;28;898;-79
2022/06/19 07:56:12;;;;;;;;;;;;;;;21.48;32.12;98300.44;5038818;28;1969;-79
2022/06/19 07:58:37;;;;;;;;;;;;;;;21.35;32.24;98293.81;5038191;28;999;-79
2022/06/19 08:01:03;;;;;;;;;;;;;;;21.29;32.31;98302.78;5028823;28;1663;-78
2022/06/19 08:03:28;;;;;;;;;;;;;;;21.28;31.92;98297.56;5034824;28;1538;-78
2022/06/19 08:05:54;;;;;;;;;;;;;;;21.16;32.23;98301.88;5037906;28;855;-78
2022/06/19 08:08:20;;;;;;;;;;;;;;;21.35;31.69;98297.47;5037824;28;903;-78
2022/06/19 08:10:47;;;;;;;;;;;;;;;21.28;32.17;98298.38;5038036;28;959;-78
2022/06/19 08:13:12;;;;;;;;;;;;;;;21.40;31.71;98294.13;5029924;28;2159;-78
2022/06/19 08:15:38;;;;;;;;;;;;;;;21.35;31.62;98308.78;5017872;28;1906;-79
2022/06/19 08:18:03;;;;;;;;;;;;;;;21.31;31.84;98300.38;5017414;28;909;-78
2022/06/19 08:20:29;;;;;;;;;;;;;;;21.23;32.07;98309.41;5018225;28;954;-78
2022/06/19 08:22:54;;;;;;;;;;;;;;;21.10;31.95;98303.59;5017743;28;1959;-78
2022/06/19 08:25:20;;;;;;;;;;;;;;;21.23;31.70;98304.53;5018051;28;912;-78
2022/06/19 08:27:48;;;;;;;;;;;;;;;21.24;31.83;98300.50;5017994;28;1045;-78
2022/06/19 08:30:15;;;;;;;;;;;;;;;21.35;31.55;98302.31;5018537;28;906;-78
2022/06/19 08:32:41;;;;;;;;;;;;;;;21.26;31.86;98306.50;5017177;28;1985;-78
2022/06/19 08:35:06;;;;;;;;;;;;;;;21.39;31.38;98297.38;4999590;28;1906;-78
2022/06/19 08:37:32;;;;;;;;;;;;;;;21.16;31.67;98290.53;5018046;28;906;-78
2022/06/19 08:39:58;;;;;;;;;;;;;;;21.18;31.73;98288.06;5014980;28;1022;-78
2022/06/19 08:42:35;;;;;;;;;;;;;;;21.29;31.53;98285.81;5014762;28;1953;-78
2022/06/19 08:45:16;;;;;;;;;;;;;;;21.29;31.43;98288.63;5015375;28;863;-78
2022/06/19 08:47:47;;;;;;;;;;;;;;;21.17;31.93;98294.16;5015129;28;973;-78
2022/06/19 08:50:31;;;;;;;;;;;;;;;21.35;31.38;98291.00;5015165;28;926;-77
2022/06/19 08:52:59;;;;;;;;;;;;;;;21.25;31.36;98276.63;5014237;28;2005;-78
2022/06/19 08:55:45;;;;;;;;;;;;;;;21.26;31.24;98281.03;5014901;28;1907;-79
2022/06/19 08:58:11;;;;;;;;;;;;;;;21.22;31.39;98277.47;5014979;28;975;-78
2022/06/19 09:00:41;;;;;;;;;;;;;;;21.30;31.40;98283.84;5015160;28;997;-78
2022/06/19 09:03:09;;;;;;;;;;;;;;;21.17;31.42;98289.31;5014139;28;1957;-78
2022/06/19 09:05:45;;;;;;;;;;;;;;;21.09;31.58;98276.56;5014781;28;992;-78
2022/06/19 09:08:28;;;;;;;;;;;;;;;21.18;31.14;98285.22;5014570;28;1013;-78
2022/06/19 09:11:04;;;;;;;;;;;;;;;21.17;31.34;98286.47;5005292;28;1977;-78
2022/06/19 09:13:52;;;;;;;;;;;;;;;20.99;31.41;98291.72;4980212;28;1854;-78
2022/06/19 09:16:44;;;;;;;;;;;;;;;21.05;31.48;98285.09;4995056;28;1001;-77
2022/06/19 09:19:37;;;;;;;;;;;;;;;21.30;31.04;98284.63;4936990;29;954;-78
2022/06/19 09:22:08;;;;;;;;;;;;;;;21.59;31.80;98279.13;4897960;29;1947;-78
2022/06/19 09:24:52;;;;;;;;;;;;;;;21.77;31.56;98277.94;4898493;29;2010;-78
2022/06/19 09:27:18;;;;;;;;;;;;;;;21.73;31.36;98282.91;4899074;29;1027;-78
2022/06/19 09:29:48;;;;;;;;;;;;;;;21.53;31.52;98282.94;4898532;29;983;-78
2022/06/19 09:32:16;;;;;;;;;;;;;;;21.40;31.80;98279.97;4879547;29;1912;-79
2022/06/19 09:34:41;;;;;;;;;;;;;;;21.40;31.93;98287.66;4879582;29;1994;-78
2022/06/19 09:37:22;;;;;;;;;;;;;;;21.43;31.84;98286.78;4880329;29;1070;-78
2022/06/19 09:39:49;;;;;;;;;;;;;;;21.45;31.47;98289.97;4876725;29;987;-79
2022/06/19 09:42:20;;;;;;;;;;;;;;;21.29;31.76;98277.31;4871315;29;1913;-79
2022/06/19 09:44:48;;;;;;;;;;;;;;;21.35;31.50;98274.00;4880152;29;1017;-78
2022/06/19 09:47:19;;;;;;;;;;;;;;;21.29;31.41;98274.50;4880139;29;1070;-78
2022/06/19 09:49:48;;;;;;;;;;;;;;;21.28;31.62;98275.72;4879966;29;1004;-78
2022/06/19 09:52:15;;;;;;;;;;;;;;;21.25;31.74;98276.63;4879971;29;1934;-78
2022/06/19 09:54:50;;;;;;;;;;;;;;;21.35;31.25;98271.16;4864647;29;1915;-78
2022/06/19 09:57:39;;;;;;;;;;;;;;;21.29;31.35;98273.69;4861190;29;1035;-78
2022/06/19 10:00:06;;;;;;;;;;;;;;;21.31;31.41;98283.38;4842822;29;1023;-79
2022/06/19 10:02:44;;;;;;;;;;;;;;;21.20;31.35;98282.00;4833343;29;2040;-78
2022/06/19 10:05:16;;;;;;;;;;;;;;;21.23;31.36;98273.41;4871605;29;1044;-78
2022/06/19 10:07:43;;;;;;;;;;;;;;;21.16;31.60;98273.56;4914303;29;1089;-78
2022/06/19 10:10:11;;;;;;;;;;;;;;;21.19;31.32;98281.19;4914401;29;1037;-77
2022/06/19 10:12:38;;;;;;;;;;;;;;;21.10;31.48;98275.31;4897866;29;1994;-77
2022/06/19 10:15:05;;;;;;;;;;;;;;;21.10;31.34;98278.13;4880901;29;1992;-79
2022/06/19 10:17:39;;;;;;;;;;;;;;;21.30;30.92;98278.16;4897889;29;1899;-79
2022/06/19 10:20:12;;;;;;;;;;;;;;;21.26;30.91;98268.91;4898273;29;968;-78
2022/06/19 10:22:38;;;;;;;;;;;;;;;21.10;31.05;98275.31;4913819;29;1987;-78
2022/06/19 10:25:09;;;;;;;;;;;;;;;21.19;31.15;98267.03;4898308;29;960;-78
2022/06/19 10:27:47;;;;;;;;;;;;;;;21.02;31.19;98256.88;4921590;29;996;-78
2022/06/19 10:30:15;;;;;;;;;;;;;;;21.16;30.99;98267.09;4936061;29;995;-78
2022/06/19 10:32:58;;;;;;;;;;;;;;;21.30;30.82;98259.16;4936133;29;1711;-78
2022/06/19 10:35:27;;;;;;;;;;;;;;;21.19;31.03;98255.72;4920294;29;1978;-78
2022/06/19 10:38:01;;;;;;;;;;;;;;;21.28;30.88;98270.06;4967987;28;1009;-78
2022/06/19 10:40:29;;;;;;;;;;;;;;;21.38;30.92;98259.00;5004347;28;1014;-78
2022/06/19 10:43:10;;;;;;;;;;;;;;;21.59;31.25;98272.66;5019462;28;1990;-78
2022/06/19 10:45:44;;;;;;;;;;;;;;;21.75;30.70;98263.41;5019457;28;903;-78
2022/06/19 10:48:28;;;;;;;;;;;;;;;21.62;30.82;98266.16;5019961;28;953;-78
2022/06/19 10:51:12;;;;;;;;;;;;;;;21.40;31.02;98259.34;5019506;28;888;-78
2022/06/19 10:54:01;;;;;;;;;;;;;;;21.30;31.26;98256.31;5037345;28;1957;-78
2022/06/19 10:56:36;;;;;;;;;;;;;;;21.30;31.21;98250.66;4959164;29;1064;-78
2022/06/19 10:59:04;;;;;;;;;;;;;;;21.31;31.30;98257.91;4901587;29;1064;-78
2022/06/19 11:04:18;;;;;;;;;;;;;;;21.33;30.98;98255.44;4906999;29;1090;-78
2022/06/19 11:06:56;;;;;;;;;;;;;;;21.41;30.77;98252.47;4904810;29;948;-78
2022/06/19 11:09:41;;;;;;;;;;;;;;;21.26;30.95;98254.78;4920295;29;998;-78
2022/06/19 11:12:12;;;;;;;;;;;;;;;21.21;31.21;98258.91;4902788;29;1959;-77
2022/06/19 11:14:44;;;;;;;;;;;;;;;21.29;30.95;98259.53;4901020;29;1989;-78
2022/06/19 11:17:30;;;;;;;;;;;;;;;21.24;31.04;98258.03;4901700;29;1066;-78
2022/06/19 11:19:56;;;;;;;;;;;;;;;21.23;30.92;98270.56;4901496;29;1003;-78
2022/06/19 11:22:24;;;;;;;;;;;;;;;21.21;30.99;98264.56;4882295;29;1927;-78
2022/06/19 11:24:49;;;;;;;;;;;;;;;21.37;30.65;98271.56;4882828;29;1129;-78
2022/06/19 11:27:18;;;;;;;;;;;;;;;21.18;30.87;98262.59;4867068;29;973;-78
2022/06/19 11:29:45;;;;;;;;;;;;;;;21.20;30.84;98257.31;4889927;29;951;-78
2022/06/19 11:32:10;;;;;;;;;;;;;;;21.13;31.00;98262.31;4884591;29;1997;-78
2022/06/19 11:34:51;;;;;;;;;;;;;;;21.02;31.35;98254.03;4975159;28;1907;-78
2022/06/19 11:37:24;;;;;;;;;;;;;;;21.24;30.64;98257.22;4977752;28;968;-78
2022/06/19 11:39:53;;;;;;;;;;;;;;;21.25;31.05;98258.84;5009331;28;962;-78
2022/06/19 11:42:19;;;;;;;;;;;;;;;21.52;31.20;98253.81;5017075;28;1929;-78
2022/06/19 11:44:51;;;;;;;;;;;;;;;21.85;30.39;98251.84;5018733;28;892;-78
2022/06/19 11:47:17;;;;;;;;;;;;;;;21.82;30.31;98246.28;4996870;28;982;-78
2022/06/19 11:49:43;;;;;;;;;;;;;;;21.52;30.81;98245.31;4938540;29;1011;-78
2022/06/19 11:52:18;;;;;;;;;;;;;;;21.47;30.97;98245.03;4937309;29;1984;-78
2022/06/19 11:54:45;;;;;;;;;;;;;;;21.45;31.15;98242.66;4938765;29;1915;-78
2022/06/19 11:57:29;;;;;;;;;;;;;;;21.49;31.18;98239.72;4938740;29;1029;-78
2022/06/19 11:59:56;;;;;;;;;;;;;;;21.29;31.09;98232.03;4938455;29;997;-78
2022/06/19 12:02:32;;;;;;;;;;;;;;;21.35;31.32;98235.19;4938177;29;1939;-78
2022/06/19 12:04:58;;;;;;;;;;;;;;;21.28;31.20;98230.44;4938373;29;1000;-78
2022/06/19 12:07:25;;;;;;;;;;;;;;;21.23;31.08;98228.13;4938820;29;1103;-78
2022/06/19 12:09:55;;;;;;;;;;;;;;;21.30;30.88;98233.69;4938389;29;1091;-78
2022/06/19 12:12:20;;;;;;;;;;;;;;;21.25;31.01;98222.84;4937884;29;1982;-78
2022/06/19 12:14:46;;;;;;;;;;;;;;;21.24;30.90;98218.44;4937965;29;1982;-78
2022/06/19 12:17:19;;;;;;;;;;;;;;;21.08;31.23;98224.00;4940353;28;1070;-77
2022/06/19 12:19:55;;;;;;;;;;;;;;;21.06;31.27;98226.47;4960564;28;1142;-78
2022/06/19 12:22:22;;;;;;;;;;;;;;;21.32;31.03;98224.75;4954437;29;1979;-78
2022/06/19 12:24:50;;;;;;;;;;;;;;;21.16;31.26;98228.28;4918638;29;1483;-78
2022/06/19 12:27:16;;;;;;;;;;;;;;;21.18;31.18;98231.47;4883442;29;1038;-78
2022/06/19 12:29:43;;;;;;;;;;;;;;;21.24;30.83;98224.09;4900256;29;1013;-78
2022/06/19 12:32:20;;;;;;;;;;;;;;;21.17;30.81;98215.72;4862104;29;1986;-79
2022/06/19 12:34:46;;;;;;;;;;;;;;;21.16;31.06;98216.97;4862434;29;1919;-78
2022/06/19 12:37:30;;;;;;;;;;;;;;;21.22;30.85;98220.88;4863009;29;986;-78
2022/06/19 12:39:56;;;;;;;;;;;;;;;21.13;31.01;98223.50;4862589;29;995;-78
2022/06/19 12:42:27;;;;;;;;;;;;;;;21.33;31.48;98227.13;4861536;29;1582;-78
2022/06/19 12:45:13;;;;;;;;;;;;;;;21.68;31.01;98223.94;4862580;29;983;-78
2022/06/19 12:47:38;;;;;;;;;;;;;;;21.65;31.02;98214.28;4862374;29;960;-78
2022/06/19 12:50:17;;;;;;;;;;;;;;;21.56;30.80;98222.59;4862949;29;978;-78
2022/06/19 12:53:05;;;;;;;;;;;;;;;21.44;31.00;98220.44;4871359;29;975;-78
2022/06/19 12:55:34;;;;;;;;;;;;;;;21.68;30.46;98213.41;4888204;29;1911;-78
2022/06/19 12:58:06;;;;;;;;;;;;;;;21.49;30.78;98205.75;4914698;29;996;-78
2022/06/19 13:00:43;;;;;;;;;;;;;;;21.44;30.91;98223.25;4921702;29;1873;-78
2022/06/19 13:03:27;;;;;;;;;;;;;;;21.46;30.72;98217.97;4946689;28;929;-78
2022/06/19 13:05:55;;;;;;;;;;;;;;;21.26;31.39;98210.28;4975682;28;1029;-78
2022/06/19 13:08:36;;;;;;;;;;;;;;;21.16;31.48;98202.81;4975715;28;1095;-79
2022/06/19 13:11:20;;;;;;;;;;;;;;;21.20;31.35;98216.91;4958930;28;2044;-78
2022/06/19 13:14:11;;;;;;;;;;;;;;;21.15;31.05;98206.09;4975616;28;992;-78